Terminal Aerodrome Forecast
Issued by NWS Jacksonville, FL

Home | Current Version | Previous Version | Text Only | Print | Product List | Glossary On
Versions: 1 2 3 4 5 6 7 8 9 10 11 12 13 14 15 16 17 18 19
000
FTUS42 KJAX 300540
TAFSSI
TAF
KSSI 300540Z 3006/3106 25007KT P6SM SCT100 BKN250
     FM301000 25008KT P6SM SCT020 BKN040 WS015/29035KT
      TEMPO 3011/3014 BKN020
     FM301400 32012G20KT P6SM FEW020 BKN250
     FM301800 33010KT P6SM FEW250=

USA.gov is the U.S. government's official web portal to all federal, state and local government web resources and services.